Time;durP1;ratioP1;P1;durP2;ratioP2;P2;SDS_P1;SDS_P2;PMS_P1;PMS_P2;Temp;Humidity;BMP_temperature;BMP_pressure;BME280_temperature;BME280_humidity;BME280_pressure;Samples;Min_cycle;Max_cycle;Signal;HPM_P1;HPM_P2
2023/07/25 00:01:06;;;;;;;3.83;2.30;;;14.30;99.90;;;-144.05;89.70;56927.41;6216527;23;20079;-85
2023/07/25 00:03:32;;;;;;;5.32;2.65;;;14.30;99.90;;;-144.05;89.70;56948.66;6216297;23;20027;-85
2023/07/25 00:06:03;;;;;;;3.88;2.40;;;14.30;99.90;;;-144.05;89.86;56940.16;6189734;23;20082;-87
2023/07/25 00:08:30;;;;;;;6.97;2.50;;;14.40;99.90;;;-144.05;89.89;56948.66;6216327;23;20047;-88
2023/07/25 00:10:56;;;;;;;4.13;2.30;;;14.40;99.90;;;-144.05;89.69;56959.28;6189636;23;20013;-88
2023/07/25 00:13:22;;;;;;;4.63;2.58;;;14.40;99.90;;;-144.05;89.99;56940.16;6216328;23;20016;-86
2023/07/25 00:15:49;;;;;;;4.25;2.05;;;14.30;99.90;;;-144.05;89.81;56942.28;6216269;23;20344;-86
2023/07/25 00:18:15;;;;;;;6.60;2.60;;;14.30;99.90;;;-144.05;90.04;56933.78;6189578;23;20074;-86
2023/07/25 00:20:41;;;;;;;5.75;2.33;;;14.30;99.90;;;-144.05;89.93;56933.78;6189742;23;20494;-84
2023/07/25 00:23:06;;;;;;;4.07;2.25;;;14.40;99.90;;;-144.05;90.05;56938.03;6216326;23;20055;-87
2023/07/25 00:25:33;;;;;;;7.28;2.75;;;14.30;99.90;;;-144.05;89.78;56955.03;6216662;23;20032;-85
2023/07/25 00:27:59;;;;;;;6.05;2.78;;;14.30;99.90;;;-144.05;89.89;56972.03;6189614;23;20019;-84
2023/07/25 00:30:25;;;;;;;9.32;2.55;;;14.30;99.90;;;-144.05;89.92;56944.41;6216174;23;20005;-87
2023/07/25 00:32:51;;;;;;;6.78;2.60;;;14.30;99.90;;;-144.05;89.97;56969.91;6214564;23;20070;-85
2023/07/25 00:35:17;;;;;;;8.05;3.33;;;14.30;99.90;;;-144.05;89.97;56963.53;6189426;23;20016;-87
2023/07/25 00:37:43;;;;;;;3.53;2.00;;;14.40;99.90;;;-144.05;89.71;56955.03;6188868;23;20008;-85
2023/07/25 00:40:09;;;;;;;4.38;2.58;;;14.40;99.90;;;-144.05;89.86;56925.28;6216395;23;20005;-85
2023/07/25 00:42:35;;;;;;;8.77;3.10;;;14.40;99.90;;;-144.05;89.69;56959.28;6189621;23;20509;-86
2023/07/25 00:45:01;;;;;;;5.20;2.70;;;14.40;99.90;;;-144.05;89.73;56948.66;6189486;23;20009;-86
2023/07/25 00:47:27;;;;;;;7.78;2.83;;;14.30;99.90;;;-144.05;89.59;56961.41;6189455;23;20059;-87
2023/07/25 00:49:54;;;;;;;4.38;2.60;;;14.40;99.90;;;-144.05;89.62;56946.53;6216047;23;20016;-86
2023/07/25 00:52:20;;;;;;;6.10;2.85;;;14.30;99.90;;;-144.05;89.61;56955.03;6189286;23;20031;-86
2023/07/25 00:54:50;;;;;;;4.43;2.72;;;14.30;99.90;;;-144.05;89.82;56963.53;6215628;23;20016;-86
2023/07/25 00:57:19;;;;;;;5.53;2.72;;;14.30;99.90;;;-144.05;89.59;56974.16;6189277;23;20582;-85
2023/07/25 00:59:46;;;;;;;3.40;2.50;;;14.30;99.90;;;-144.05;89.61;56963.53;6189235;23;20012;-86
2023/07/25 01:02:15;;;;;;;4.30;2.50;;;14.30;99.90;;;-144.05;89.69;56948.66;6215865;23;20007;-87
2023/07/25 01:04:43;;;;;;;6.88;3.08;;;14.40;99.90;;;-144.05;89.75;56929.53;6214250;23;20440;-85
2023/07/25 01:07:13;;;;;;;4.38;2.17;;;14.40;99.90;;;-144.05;89.84;56935.91;6188735;23;20008;-84
2023/07/25 01:09:43;;;;;;;5.43;2.67;;;14.40;99.90;;;-144.05;89.94;56955.03;6213982;23;20012;-85
2023/07/25 01:12:12;;;;;;;4.28;2.55;;;14.40;99.90;;;-144.05;90.21;56942.28;6188711;23;20008;-84
2023/07/25 01:14:40;;;;;;;3.75;2.25;;;14.40;99.90;;;-144.05;90.11;56950.78;6188809;23;20008;-85
2023/07/25 01:17:18;;;;;;;4.30;2.55;;;14.40;99.90;;;-144.05;89.97;56946.53;6188660;23;20450;-85
2023/07/25 01:19:47;;;;;;;6.00;2.88;;;14.40;99.90;;;-144.05;89.99;56948.66;6188713;23;20015;-85
2023/07/25 01:22:14;;;;;;;4.07;2.50;;;14.40;99.90;;;-144.05;89.91;56957.16;6189020;23;20004;-87
2023/07/25 01:24:47;;;;;;;6.28;2.83;;;14.40;99.90;;;-144.05;90.07;56961.41;6189034;23;20015;-85
2023/07/25 01:27:15;;;;;;;6.55;2.72;;;14.30;99.90;;;-144.05;90.13;56955.03;6189450;23;20083;-88
2023/07/25 01:29:41;;;;;;;3.08;2.30;;;14.40;99.90;;;-144.05;90.26;56935.91;6188767;23;20032;-86
2023/07/25 01:32:09;;;;;;;5.68;2.80;;;14.40;99.90;;;-144.05;90.19;56946.53;6215632;23;20015;-84
2023/07/25 01:34:35;;;;;;;4.70;2.88;;;14.40;99.90;;;-144.05;90.21;56969.91;6188811;23;20012;-87
2023/07/25 01:37:01;;;;;;;4.10;2.65;;;14.40;99.90;;;-144.05;90.49;56972.03;6215553;23;20005;-84
2023/07/25 01:39:27;;;;;;;5.82;2.70;;;14.40;99.90;;;-144.05;90.21;56957.16;6215703;23;20005;-87
2023/07/25 01:41:52;;;;;;;3.67;2.40;;;14.50;99.90;;;-144.05;90.30;56959.28;6213978;23;20008;-86
2023/07/25 01:44:18;;;;;;;5.90;2.70;;;14.40;99.90;;;-144.05;90.31;56942.28;6188701;23;20350;-86
2023/07/25 01:46:44;;;;;;;4.82;2.53;;;14.40;99.90;;;-144.05;90.31;56931.66;6188593;23;20464;-85
2023/07/25 01:49:12;;;;;;;5.75;2.85;;;14.40;99.90;;;-144.05;90.29;56940.16;6188299;23;20127;-86
2023/07/25 01:51:39;;;;;;;8.48;3.00;;;14.40;99.90;;;-144.05;90.29;56969.91;6215953;23;20063;-88
2023/07/25 01:54:05;;;;;;;5.28;3.25;;;14.40;99.90;;;-144.05;90.16;56963.53;6188547;23;20346;-87
2023/07/25 01:56:31;;;;;;;5.95;3.22;;;14.40;99.90;;;-144.05;89.96;56980.53;6189000;23;20009;-87
2023/07/25 01:58:57;;;;;;;8.48;3.55;;;14.30;99.90;;;-144.05;90.12;56944.41;6188972;23;20005;-88
2023/07/25 02:01:24;;;;;;;8.43;3.50;;;14.30;99.90;;;-144.05;90.09;56931.66;6217068;23;20007;-86
2023/07/25 02:03:49;;;;;;;4.28;2.60;;;14.30;99.90;;;-144.05;90.27;56950.78;6189610;23;20008;-87
2023/07/25 02:06:15;;;;;;;6.07;3.20;;;14.30;99.90;;;-144.05;90.20;56946.53;6189183;23;20031;-86
2023/07/25 02:08:41;;;;;;;4.47;2.88;;;14.30;99.90;;;-144.05;90.12;56972.03;6189145;23;20059;-87
2023/07/25 02:11:07;;;;;;;8.20;3.30;;;14.30;99.90;;;-144.05;90.15;56957.16;6188581;23;20120;-87
2023/07/25 02:13:33;;;;;;;4.72;2.88;;;14.30;99.90;;;-144.05;90.17;56967.78;6188575;23;20167;-86
2023/07/25 02:15:59;;;;;;;7.38;3.45;;;14.30;99.90;;;-144.05;90.20;56976.28;6213997;23;20008;-87
2023/07/25 02:18:24;;;;;;;5.32;2.80;;;14.30;99.90;;;-144.05;90.05;56952.91;6215209;23;20351;-85
2023/07/25 02:20:51;;;;;;;5.43;2.80;;;14.20;99.90;;;-144.05;90.44;56955.03;6188931;23;20062;-87
2023/07/25 02:23:17;;;;;;;4.95;3.20;;;14.20;99.90;;;-144.05;90.19;56948.66;6189042;23;20015;-88
2023/07/25 02:25:42;;;;;;;7.22;3.42;;;14.20;99.90;;;-144.05;90.05;56955.03;6189104;23;20017;-86
2023/07/25 02:28:08;;;;;;;8.65;3.10;;;14.20;99.90;;;-144.05;90.08;56944.41;6216405;23;20008;-85
2023/07/25 02:30:34;;;;;;;7.30;3.17;;;14.10;99.90;;;-144.05;90.09;56944.41;6196591;23;20008;-84
2023/07/25 02:33:00;;;;;;;11.90;4.10;;;14.10;99.90;;;-144.05;89.96;56952.91;6213383;23;20438;-86
2023/07/25 02:35:26;;;;;;;6.13;3.10;;;14.20;99.90;;;-144.05;89.83;56957.16;6188311;23;20005;-86
2023/07/25 02:37:51;;;;;;;7.13;3.50;;;14.10;99.90;;;-144.05;89.94;56963.53;6188101;23;20035;-84
2023/07/25 02:40:17;;;;;;;6.38;3.53;;;14.00;99.90;;;-144.05;89.79;56950.78;6187960;23;20417;-84
2023/07/25 02:42:43;;;;;;;6.60;3.83;;;14.00;99.90;;;-144.05;89.36;56963.53;6214980;23;20000;-84
2023/07/25 02:45:10;;;;;;;5.65;3.13;;;14.00;99.90;;;-144.05;89.36;56955.03;6214545;23;20004;-84
2023/07/25 02:47:35;;;;;;;9.00;3.40;;;13.90;99.90;;;-144.05;89.67;56946.53;6188428;23;20009;-87
2023/07/25 02:50:01;;;;;;;5.18;3.17;;;13.90;99.90;;;-144.05;89.36;56955.03;6215537;23;20032;-84
2023/07/25 02:52:27;;;;;;;6.40;3.08;;;13.90;99.90;;;-144.05;89.55;56957.16;6188529;23;20008;-87
2023/07/25 02:54:53;;;;;;;7.13;3.28;;;13.90;99.90;;;-144.05;89.65;56952.91;6188519;23;20008;-85
2023/07/25 02:57:19;;;;;;;5.60;3.00;;;13.80;99.90;;;-144.05;89.76;56933.78;6213444;23;20000;-87
2023/07/25 02:59:44;;;;;;;6.05;3.58;;;13.80;99.90;;;-144.05;89.69;56938.03;6188506;23;20427;-84
2023/07/25 03:02:10;;;;;;;5.88;3.50;;;13.70;99.90;;;-144.05;89.76;56950.78;6188912;23;20011;-87
2023/07/25 03:04:36;;;;;;;4.85;3.30;;;13.70;99.90;;;-144.05;89.79;56957.16;6188852;23;20012;-85
2023/07/25 03:07:02;;;;;;;6.80;3.13;;;13.60;99.90;;;-144.05;89.79;56959.28;6214655;23;20036;-86
2023/07/25 03:09:30;;;;;;;5.88;3.58;;;13.60;99.90;;;-144.05;89.66;56976.28;6189506;23;20071;-85
2023/07/25 03:11:56;;;;;;;7.07;3.40;;;13.50;99.90;;;-144.05;89.88;56942.28;6189345;23;20022;-84
2023/07/25 03:14:22;;;;;;;6.47;3.35;;;13.50;99.90;;;-144.05;89.80;56963.53;6196514;23;20077;-85
2023/07/25 03:16:48;;;;;;;5.25;3.70;;;13.40;99.90;;;-144.05;89.99;56950.78;6210636;23;20048;-84
2023/07/25 03:19:14;;;;;;;6.65;3.17;;;13.40;99.90;;;-144.05;89.77;56942.28;6210968;23;20027;-87
2023/07/25 03:21:40;;;;;;;8.13;3.42;;;13.40;99.90;;;-144.05;89.98;56961.41;6211160;23;20442;-86
2023/07/25 03:24:06;;;;;;;5.35;2.90;;;13.20;99.90;;;-144.05;89.79;56969.91;6208294;23;20047;-85
2023/07/25 03:26:32;;;;;;;6.03;3.47;;;13.20;99.90;;;-144.05;89.99;56944.41;6188350;23;20012;-86
2023/07/25 03:28:58;;;;;;;7.53;3.40;;;13.10;99.90;;;-144.05;90.17;56938.03;6188413;23;20012;-86
2023/07/25 03:31:24;;;;;;;6.93;3.35;;;13.10;99.90;;;-144.05;90.02;56961.41;6188026;23;20377;-85
2023/07/25 03:33:49;;;;;;;4.38;3.40;;;13.00;99.90;;;-144.05;90.05;56946.53;6187843;23;20005;-85
2023/07/25 03:36:15;;;;;;;7.38;3.13;;;12.90;99.90;;;-144.05;90.08;56935.91;6187616;23;20120;-87
2023/07/25 03:38:41;;;;;;;5.07;2.92;;;12.90;99.90;;;-144.05;90.09;56955.03;6188123;23;20031;-86
2023/07/25 03:41:07;;;;;;;6.00;3.45;;;12.90;99.90;;;-144.05;90.28;56961.41;6188135;23;20118;-87
2023/07/25 03:43:34;;;;;;;5.40;3.08;;;12.80;99.90;;;-144.05;90.10;56963.53;6188643;23;20012;-87
2023/07/25 03:45:59;;;;;;;10.68;3.70;;;12.80;99.90;;;-144.05;90.22;56967.78;6188137;23;20224;-87
2023/07/25 03:48:25;;;;;;;5.32;3.28;;;12.70;99.90;;;-144.05;90.09;56963.53;6188384;23;20012;-87
2023/07/25 03:50:51;;;;;;;8.43;3.55;;;12.70;99.90;;;-144.05;90.06;56946.53;6188920;23;20012;-87
2023/07/25 03:53:17;;;;;;;9.05;3.90;;;12.70;99.90;;;-144.05;90.29;56950.78;6215661;23;20419;-88
2023/07/25 03:55:43;;;;;;;6.22;4.05;;;12.60;99.90;;;-144.05;90.30;56946.53;6188979;23;20009;-86
2023/07/25 03:58:08;;;;;;;11.05;4.85;;;12.60;99.90;;;-144.05;90.39;56967.78;6216037;23;20387;-87
2023/07/25 04:00:34;;;;;;;6.28;3.60;;;12.60;99.90;;;-144.05;90.42;56961.41;6189986;23;20039;-87
2023/07/25 04:03:00;;;;;;;7.72;4.15;;;12.60;99.90;;;-144.05;90.37;56963.53;6189590;23;20032;-87
2023/07/25 04:05:26;;;;;;;7.20;4.13;;;12.70;99.90;;;-144.05;90.34;56959.28;6189222;23;20019;-88
2023/07/25 04:07:52;;;;;;;6.70;3.65;;;12.60;99.90;;;-144.05;90.49;56944.41;6190968;23;20016;-88
2023/07/25 04:10:18;;;;;;;8.52;3.85;;;12.60;99.90;;;-144.05;90.52;56946.53;6190558;23;20016;-88
2023/07/25 04:12:43;;;;;;;5.82;3.80;;;12.70;99.90;;;-144.05;90.61;56969.91;6190087;23;20020;-87
2023/07/25 04:15:10;;;;;;;7.15;3.17;;;12.70;99.90;;;-144.05;90.56;56963.53;6189878;23;20063;-86
2023/07/25 04:17:36;;;;;;;5.32;3.00;;;12.60;99.90;;;-144.05;90.74;56976.28;6189232;23;20004;-87
2023/07/25 04:20:02;;;;;;;7.85;4.00;;;12.60;99.90;;;-144.05;90.75;56948.66;6190476;23;20005;-85
2023/07/25 04:22:28;;;;;;;10.20;4.82;;;12.60;99.90;;;-144.05;90.69;56967.78;6215534;23;20060;-84
2023/07/25 04:24:54;;;;;;;8.98;4.07;;;12.60;99.90;;;-144.05;90.73;56967.78;6215665;23;20005;-85
2023/07/25 04:27:20;;;;;;;6.65;3.58;;;12.60;99.90;;;-144.05;90.88;56963.53;6215055;23;20023;-83
2023/07/25 04:29:46;;;;;;;7.03;4.25;;;12.60;99.90;;;-144.05;90.73;56957.16;6215468;23;20001;-83
2023/07/25 04:32:12;;;;;;;6.00;4.10;;;12.70;99.90;;;-144.05;90.91;56948.66;6215160;23;20087;-85
2023/07/25 04:34:38;;;;;;;6.25;3.92;;;12.70;99.90;;;-144.05;90.80;56940.16;6215470;23;20096;-85
2023/07/25 04:37:04;;;;;;;6.85;4.38;;;12.70;99.90;;;-144.05;90.99;56961.41;6193738;23;20012;-87
2023/07/25 04:39:30;;;;;;;6.32;4.80;;;12.80;99.90;;;-144.05;91.01;56963.53;6189253;23;20009;-87
2023/07/25 04:41:56;;;;;;;9.02;4.43;;;12.80;99.90;;;-144.05;91.00;56938.03;6216164;23;20008;-86
2023/07/25 04:44:22;;;;;;;9.73;4.72;;;13.00;99.90;;;-144.05;90.92;56967.78;6190299;23;20016;-87
2023/07/25 04:46:47;;;;;;;9.40;4.38;;;13.00;99.90;;;-144.05;91.21;56974.16;6217797;23;20008;-87
2023/07/25 04:49:13;;;;;;;6.32;4.68;;;13.10;99.90;;;-144.05;91.71;56959.28;6217604;23;20012;-85
2023/07/25 04:51:40;;;;;;;8.50;4.55;;;13.10;99.90;;;-144.05;91.73;56950.78;6218347;23;20004;-87
2023/07/25 04:54:07;;;;;;;8.35;4.80;;;13.20;99.90;;;-144.05;91.89;56940.16;6191547;23;20012;-88
2023/07/25 04:56:33;;;;;;;8.50;5.07;;;13.20;99.90;;;-144.05;92.03;56965.66;6191608;23;20016;-86
2023/07/25 04:58:59;;;;;;;7.97;4.75;;;13.20;99.90;;;-144.05;92.11;56959.28;6190948;23;20009;-89
2023/07/25 05:01:25;;;;;;;9.38;4.35;;;13.30;99.90;;;-144.05;92.06;56946.53;6191964;23;20008;-86
2023/07/25 05:03:51;;;;;;;9.80;4.53;;;13.30;99.90;;;-144.05;91.84;56938.03;6191232;23;20004;-87
2023/07/25 05:06:16;;;;;;;9.07;5.57;;;13.30;99.90;;;-144.05;91.96;56972.03;6192195;23;20276;-87
2023/07/25 05:08:42;;;;;;;6.60;4.40;;;13.40;99.90;;;-144.05;92.12;56963.53;6193232;23;20040;-87
2023/07/25 05:11:08;;;;;;;12.73;5.65;;;13.40;99.90;;;-144.05;92.23;56944.41;6192568;23;20446;-87
2023/07/25 05:13:34;;;;;;;8.73;5.22;;;13.60;99.90;;;-144.05;92.26;56972.03;6199663;23;20008;-85
2023/07/25 05:16:00;;;;;;;9.70;5.20;;;13.70;99.90;;;-144.05;92.23;56961.41;6193807;23;20067;-86
2023/07/25 05:18:26;;;;;;;15.25;6.65;;;13.90;99.90;;;-144.05;91.95;56946.53;6192580;23;20009;-87
2023/07/25 05:20:52;;;;;;;11.43;5.88;;;13.90;99.90;;;-144.05;91.10;56963.53;6192786;23;20009;-87
2023/07/25 05:23:17;;;;;;;11.63;5.72;;;13.90;99.90;;;-144.05;90.62;56974.16;6192747;23;20005;-88
2023/07/25 05:25:49;;;;;;;11.95;5.15;;;14.00;99.90;;;-144.05;90.55;56950.78;6192733;23;20012;-85
2023/07/25 05:28:17;;;;;;;8.77;4.72;;;14.00;99.90;;;-144.05;90.22;56940.16;6220213;23;20080;-87
2023/07/25 05:30:42;;;;;;;13.23;5.07;;;14.10;99.90;;;-144.05;89.39;56963.53;6194633;23;20005;-87
2023/07/25 05:33:08;;;;;;;10.57;4.93;;;14.10;99.90;;;-144.05;88.47;56976.28;6194052;23;20142;-88
2023/07/25 05:35:34;;;;;;;10.88;4.95;;;14.20;99.90;;;-144.05;88.00;56948.66;6193827;23;20451;-86
2023/07/25 05:38:01;;;;;;;14.57;4.90;;;14.30;99.90;;;-144.05;86.74;56944.41;6194004;23;20339;-85
2023/07/25 05:40:27;;;;;;;9.63;4.47;;;14.50;99.90;;;-144.05;85.37;56955.03;6194093;23;20096;-86
2023/07/25 05:42:53;;;;;;;9.38;4.28;;;14.70;99.90;;;-144.05;83.41;56942.28;6194539;23;20009;-87
2023/07/25 05:45:20;;;;;;;11.15;4.85;;;14.70;99.90;;;-144.05;81.94;56944.41;6194323;23;20075;-87
2023/07/25 05:47:46;;;;;;;11.55;4.40;;;14.90;99.90;;;-144.05;80.33;56961.41;6221261;23;20012;-86
2023/07/25 05:50:13;;;;;;;9.27;3.95;;;15.10;99.90;;;-144.05;79.52;56925.28;6221313;23;20008;-87
2023/07/25 05:52:39;;;;;;;7.25;3.78;;;15.40;99.90;;;-144.05;78.39;56933.78;6194008;23;20005;-85
2023/07/25 05:55:06;;;;;;;8.38;3.08;;;15.60;99.90;;;-144.05;77.68;56938.03;6220324;23;20000;-84
2023/07/25 05:57:32;;;;;;;13.32;4.13;;;15.80;99.90;;;-144.05;75.80;56940.16;6193732;23;20339;-85
2023/07/25 05:59:57;;;;;;;11.25;4.00;;;16.00;99.90;;;-144.05;74.91;56955.03;6192726;23;20015;-87
2023/07/25 06:02:23;;;;;;;7.78;3.55;;;16.20;99.90;;;-144.05;74.04;56978.41;6193251;23;20397;-84
2023/07/25 06:04:49;;;;;;;12.40;3.30;;;16.40;99.90;;;-144.05;71.57;56938.03;6219487;23;20196;-84
2023/07/25 06:07:15;;;;;;;11.15;3.65;;;16.50;99.90;;;-144.05;70.09;56969.91;6217804;23;20012;-83
2023/07/25 06:09:41;;;;;;;7.20;2.70;;;16.50;99.90;;;-144.05;69.44;56938.03;6193754;23;20465;-89
2023/07/25 06:12:09;;;;;;;6.45;2.85;;;16.60;99.90;;;-144.05;69.67;56963.53;6195119;23;20016;-87
2023/07/25 06:14:36;;;;;;;9.45;3.03;;;16.80;99.90;;;-144.05;68.44;56969.91;6194890;23;20035;-89
2023/07/25 06:17:03;;;;;;;9.48;3.30;;;16.90;99.90;;;-144.05;67.04;56944.41;6195017;23;20012;-87
2023/07/25 06:19:29;;;;;;;7.15;2.78;;;17.00;99.90;;;-144.05;66.00;56959.28;6194777;23;20012;-88
2023/07/25 06:21:55;;;;;;;10.68;2.97;;;17.20;99.90;;;-144.05;65.71;56965.66;6195412;23;20063;-86
2023/07/25 06:24:23;;;;;;;6.40;3.03;;;17.40;99.90;;;-144.05;64.54;56976.28;6195872;23;20064;-86
2023/07/25 06:26:48;;;;;;;6.18;2.53;;;17.70;99.90;;;-144.05;63.21;56961.41;6194805;23;20005;-85
2023/07/25 06:29:14;;;;;;;6.53;2.97;;;17.90;99.90;;;-144.05;61.72;56972.03;6193970;23;20000;-85
2023/07/25 06:31:40;;;;;;;7.90;2.40;;;18.10;99.90;;;-144.05;61.10;56974.16;6219822;23;20001;-86
2023/07/25 06:34:07;;;;;;;5.95;2.17;;;18.20;99.90;;;-144.05;60.70;56976.28;6199360;23;20000;-82
2023/07/25 06:36:33;;;;;;;6.50;1.90;;;18.20;99.90;;;-144.05;59.05;56961.41;6191425;23;20434;-84
2023/07/25 06:46:38;;;;;;;5.68;1.75;;;17.70;99.90;;;-144.05;62.86;56963.53;6193247;23;20039;-85
2023/07/25 06:49:04;;;;;;;8.30;2.45;;;17.60;99.90;;;-144.05;63.04;56967.78;6179637;23;20041;-84
2023/07/25 06:51:30;;;;;;;7.82;2.15;;;17.30;99.90;;;-144.05;62.69;56942.28;6136235;23;20006;-85
2023/07/25 06:53:56;;;;;;;8.15;1.95;;;17.10;99.90;;;-144.05;62.55;56955.03;6136835;23;20010;-86
2023/07/25 06:56:22;;;;;;;7.13;2.08;;;16.80;99.90;;;-144.05;63.38;56963.53;6138261;23;20017;-86
2023/07/25 06:58:48;;;;;;;8.25;2.00;;;16.80;99.90;;;-144.05;63.48;56967.78;6137244;23;20006;-84
2023/07/25 07:01:13;;;;;;;6.53;1.92;;;16.80;99.90;;;-144.05;63.87;56980.53;6135820;23;20016;-85
2023/07/25 07:03:39;;;;;;;8.98;1.70;;;16.90;99.90;;;-144.05;63.41;56946.53;6137542;23;20005;-85
2023/07/25 07:06:05;;;;;;;5.80;2.03;;;16.90;99.90;;;-144.05;61.98;56955.03;6163606;23;20013;-86
2023/07/25 07:08:31;;;;;;;6.97;2.03;;;17.10;99.90;;;-144.05;62.01;56963.53;6137324;23;20025;-85
2023/07/25 07:10:57;;;;;;;6.55;1.77;;;16.90;99.90;;;-144.05;62.16;56957.16;6137130;23;20016;-86
2023/07/25 07:13:23;;;;;;;8.55;1.80;;;17.20;99.90;;;-144.05;61.54;56989.00;6138426;23;20052;-87
2023/07/25 07:15:50;;;;;;;4.85;1.90;;;17.90;99.90;;;-144.05;59.02;56965.66;6147535;23;20017;-87
2023/07/25 07:18:16;;;;;;;6.50;1.45;;;18.60;99.90;;;-144.05;57.11;56974.16;6170726;23;19994;-86
2023/07/25 07:20:48;;;;;;;9.43;1.90;;;19.20;99.90;;;-144.05;54.72;57006.00;6151454;23;20009;-86
2023/07/25 07:23:16;;;;;;;7.97;1.77;;;19.30;99.90;;;-144.05;55.14;56989.00;6150871;23;19990;-84
2023/07/25 07:25:43;;;;;;;3.85;1.38;;;19.20;99.90;;;-144.05;52.99;56991.13;6151997;23;20009;-87
2023/07/25 07:28:09;;;;;;;4.35;1.67;;;19.30;99.90;;;-144.05;53.08;56991.13;6174217;23;20010;-82
2023/07/25 07:30:35;;;;;;;4.20;1.42;;;19.50;99.90;;;-144.05;52.92;56995.38;6138366;23;20067;-84
2023/07/25 07:33:01;;;;;;;5.80;1.33;;;19.60;99.90;;;-144.05;54.17;56978.41;6158366;23;20409;-83
2023/07/25 07:35:27;;;;;;;5.55;1.40;;;19.40;99.90;;;-144.05;54.25;56974.16;6158733;23;20010;-83
2023/07/25 07:37:53;;;;;;;3.72;1.27;;;19.10;99.90;;;-144.05;54.27;56989.00;6132096;23;20009;-83
2023/07/25 07:40:19;;;;;;;6.60;1.67;;;18.70;99.90;;;-144.05;54.87;56989.00;6133145;23;20032;-84
2023/07/25 07:42:44;;;;;;;8.48;1.95;;;18.40;99.90;;;-144.05;55.13;56961.41;6158796;23;20033;-85
2023/07/25 07:45:10;;;;;;;6.95;1.88;;;18.50;99.90;;;-144.05;51.89;56986.91;6139110;23;20014;-85
2023/07/25 07:47:36;;;;;;;8.75;2.10;;;18.90;99.90;;;-144.05;53.11;56989.00;6158720;23;20001;-86
2023/07/25 07:50:02;;;;;;;6.13;1.77;;;19.20;99.90;;;-144.05;54.55;57003.88;6156836;23;20005;-84
2023/07/25 07:52:28;;;;;;;6.68;1.70;;;19.20;99.90;;;-144.05;53.92;56967.78;6156965;23;20463;-84
2023/07/25 07:54:55;;;;;;;6.00;1.60;;;18.90;99.90;;;-144.05;54.58;56938.03;6156423;23;20025;-84
2023/07/25 07:57:21;;;;;;;6.35;1.58;;;18.40;99.90;;;-144.05;55.72;56991.13;6156806;23;20005;-83
2023/07/25 07:59:47;;;;;;;9.10;1.60;;;18.10;99.90;;;-144.05;56.66;56980.53;6156425;23;20037;-83
2023/07/25 08:02:12;;;;;;;7.10;1.83;;;17.70;99.90;;;-144.05;57.16;56965.66;6157045;23;20016;-84
2023/07/25 08:04:38;;;;;;;4.70;1.60;;;17.90;99.90;;;-144.05;56.51;56967.78;6158970;23;20348;-85
2023/07/25 08:07:04;;;;;;;9.85;1.73;;;18.40;99.90;;;-144.05;52.41;56989.00;6157348;23;20009;-84
2023/07/25 08:09:30;;;;;;;6.72;1.67;;;18.70;99.90;;;-144.05;52.50;56963.53;6181255;23;20387;-86
2023/07/25 08:11:56;;;;;;;4.60;1.58;;;18.60;99.90;;;-144.05;53.88;56993.25;6157607;23;20044;-86
2023/07/25 08:14:21;;;;;;;5.80;1.65;;;18.60;99.90;;;-144.05;55.23;56989.00;6157149;23;20016;-85
2023/07/25 08:16:47;;;;;;;4.25;1.77;;;18.60;99.90;;;-144.05;56.02;56978.41;6156508;23;20444;-84
2023/07/25 08:19:13;;;;;;;8.27;1.85;;;18.50;99.90;;;-144.05;54.43;56991.13;6159718;23;20016;-85
2023/07/25 08:21:39;;;;;;;3.80;1.45;;;18.30;99.90;;;-144.05;53.84;56995.38;6159699;23;20060;-84
2023/07/25 08:24:05;;;;;;;5.38;1.25;;;18.30;99.90;;;-144.05;54.34;56980.53;6160011;23;20386;-82
2023/07/25 08:26:31;;;;;;;7.88;1.40;;;18.40;99.90;;;-144.05;53.47;56982.66;6161010;23;20016;-84
2023/07/25 08:28:56;;;;;;;5.50;1.50;;;18.40;99.90;;;-144.05;52.48;56999.63;6161294;23;20056;-86
2023/07/25 08:31:22;;;;;;;5.53;1.90;;;18.40;99.90;;;-144.05;53.37;56967.78;6163046;23;20010;-82
2023/07/25 08:33:48;;;;;;;4.45;1.33;;;18.50;99.90;;;-144.05;51.20;56982.66;6163102;23;20029;-83
2023/07/25 08:36:14;;;;;;;3.55;1.40;;;18.60;99.90;;;-144.05;49.65;56993.25;6162136;23;20009;-83
2023/07/25 08:38:41;;;;;;;6.03;1.48;;;18.50;99.90;;;-144.05;50.15;56995.38;6159318;23;20006;-84
2023/07/25 08:41:25;;;;;;;4.80;1.20;;;18.50;99.90;;;-144.05;50.55;56969.91;6158676;23;20092;-84
2023/07/25 08:43:54;;;;;;;8.05;1.48;;;18.60;99.90;;;-144.05;48.57;56978.41;6160885;23;20069;-83
2023/07/25 08:46:26;;;;;;;5.50;1.70;;;18.60;99.90;;;-144.05;49.09;56967.78;6160815;23;20084;-83
2023/07/25 08:49:01;;;;;;;3.88;1.52;;;18.80;99.90;;;-144.05;50.48;56995.38;6134668;23;20017;-85
2023/07/25 08:51:32;;;;;;;6.28;1.88;;;19.00;99.90;;;-144.05;51.59;56959.28;6160497;23;20084;-85
2023/07/25 08:54:19;;;;;;;2.83;1.20;;;19.20;99.90;;;-144.05;52.14;56984.78;6133893;23;20405;-83
2023/07/25 08:56:46;;;;;;;2.80;1.23;;;19.30;99.90;;;-144.05;49.95;56978.41;6160123;23;20010;-84
2023/07/25 08:59:14;;;;;;;5.85;1.30;;;19.30;99.90;;;-144.05;48.86;56997.50;6133519;23;20056;-82
2023/07/25 09:01:41;;;;;;;4.93;1.90;;;19.30;99.90;;;-144.05;49.66;56980.53;6133379;23;20040;-83
2023/07/25 09:04:10;;;;;;;9.45;1.95;;;19.30;99.90;;;-144.05;50.64;56995.38;6133260;23;20010;-83
2023/07/25 09:06:36;;;;;;;4.53;1.38;;;19.30;99.90;;;-144.05;50.84;56974.16;6132860;23;20025;-82
2023/07/25 09:09:02;;;;;;;5.32;1.30;;;19.40;99.90;;;-144.05;48.48;56978.41;6160073;23;20005;-82
2023/07/25 09:11:28;;;;;;;4.07;1.42;;;19.20;99.90;;;-144.05;49.84;56991.13;6134415;23;20441;-84
2023/07/25 09:13:55;;;;;;;4.75;1.65;;;19.10;99.90;;;-144.05;50.77;56989.00;6160105;23;20093;-81
2023/07/25 09:16:21;;;;;;;6.15;1.45;;;19.10;99.90;;;-144.05;49.67;56974.16;6132497;23;20048;-84
2023/07/25 09:18:47;;;;;;;4.80;1.42;;;19.10;99.90;;;-144.05;50.50;56986.91;6159904;23;20597;-84
2023/07/25 09:21:15;;;;;;;4.95;1.42;;;19.30;99.90;;;-144.05;50.68;56967.78;6159773;23;20006;-85
2023/07/25 09:24:00;;;;;;;5.78;1.60;;;19.30;99.90;;;-144.05;49.63;56980.53;6159428;23;20013;-84
2023/07/25 09:26:30;;;;;;;6.07;1.77;;;19.20;99.90;;;-144.05;50.48;56993.25;6134108;23;20009;-83
2023/07/25 09:29:00;;;;;;;3.78;1.40;;;19.20;99.90;;;-144.05;49.20;57001.75;6159825;23;20005;-84
2023/07/25 09:31:27;;;;;;;7.07;1.90;;;19.10;99.90;;;-144.05;49.12;56974.16;6158923;23;20343;-83
2023/07/25 09:33:56;;;;;;;4.45;1.63;;;18.90;99.90;;;-144.05;49.88;56980.53;6131536;23;20018;-85
2023/07/25 09:36:22;;;;;;;3.10;1.58;;;18.60;99.90;;;-144.05;50.44;56976.28;6158476;23;20036;-84
2023/07/25 09:38:55;;;;;;;5.47;1.42;;;18.20;99.90;;;-144.05;51.60;56948.66;6132134;23;20033;-84
2023/07/25 09:41:25;;;;;;;5.60;1.48;;;18.00;99.90;;;-144.05;52.94;56967.78;6159212;23;20030;-83
2023/07/25 09:43:52;;;;;;;8.18;1.60;;;17.90;99.90;;;-144.05;52.96;56976.28;6133072;23;20051;-84
2023/07/25 09:46:19;;;;;;;6.15;1.40;;;17.80;99.90;;;-144.05;52.92;56978.41;6160374;23;20092;-84
2023/07/25 09:48:52;;;;;;;4.57;1.42;;;17.90;99.90;;;-144.05;52.84;56980.53;6133546;23;20014;-83
2023/07/25 09:51:18;;;;;;;4.57;1.85;;;17.90;99.90;;;-144.05;52.73;56978.41;6158176;23;20005;-84
2023/07/25 09:53:51;;;;;;;4.57;1.40;;;18.00;99.90;;;-144.05;52.60;56984.78;6132222;23;20101;-85
2023/07/25 09:56:17;;;;;;;5.95;1.45;;;18.40;99.90;;;-144.05;52.28;56984.78;6158302;23;20047;-83
2023/07/25 09:58:43;;;;;;;5.20;1.48;;;18.80;99.90;;;-144.05;51.33;56978.41;6133500;23;20025;-82
2023/07/25 10:01:10;;;;;;;4.70;1.50;;;19.10;99.90;;;-144.05;49.85;56989.00;6159277;23;20037;-84
2023/07/25 10:03:37;;;;;;;3.60;1.38;;;19.40;99.90;;;-144.05;47.17;56965.66;6160409;23;20335;-85
2023/07/25 10:06:04;;;;;;;5.53;1.20;;;19.70;99.90;;;-144.05;45.63;56967.78;6135790;23;20344;-83
2023/07/25 10:08:31;;;;;;;4.25;1.50;;;20.00;99.90;;;-144.05;46.30;56993.25;6161963;23;20010;-86
2023/07/25 10:10:57;;;;;;;3.63;1.45;;;20.20;99.90;;;-144.05;47.43;56991.13;6135364;23;20009;-82